Time;durP1;ratioP1;P1;durP2;ratioP2;P2;SDS_P1;SDS_P2;PMS_P1;PMS_P2;Temp;Humidity;BMP_temperature;BMP_pressure;BME280_temperature;BME280_humidity;BME280_pressure;Samples;Min_cycle;Max_cycle;Signal;HPM_P1;HPM_P2
2021/07/25 00:01:21;;;;;;;43.00;19.17;;;;;;;13.78;70.89;99961.66;5132268;28;20035;-70
2021/07/25 00:03:46;;;;;;;40.20;20.13;;;;;;;13.77;71.05;99962.63;5131648;27;20039;-70
2021/07/25 00:06:16;;;;;;;44.65;20.23;;;;;;;13.78;71.38;99961.66;5131541;27;20403;-70
2021/07/25 00:08:42;;;;;;;48.35;21.02;;;;;;;13.79;71.34;99966.81;5132407;27;20420;-69
2021/07/25 00:11:08;;;;;;;51.47;22.20;;;;;;;13.81;71.67;99969.38;5132326;28;20043;-71
2021/07/25 00:13:40;;;;;;;68.03;28.13;;;;;;;13.87;71.61;99963.53;5132782;28;20134;-70
2021/07/25 00:16:06;;;;;;;47.63;19.58;;;;;;;14.00;71.13;99966.78;5131403;27;20031;-71
2021/07/25 00:18:33;;;;;;;54.35;22.13;;;;;;;14.10;70.93;99971.31;5131006;27;20472;-70
2021/07/25 00:20:58;;;;;;;41.30;19.63;;;;;;;14.16;70.69;99976.09;5131939;27;20055;-69
2021/07/25 00:23:26;;;;;;;43.42;19.55;;;;;;;14.23;70.39;99977.22;5130145;27;20058;-70
2021/07/25 00:26:01;;;;;;;48.17;21.02;;;;;;;14.29;70.46;99978.53;5130575;27;20035;-71
2021/07/25 00:28:33;;;;;;;41.85;20.27;;;;;;;14.33;70.06;99975.47;5131201;28;20518;-70
2021/07/25 00:31:02;;;;;;;38.00;19.33;;;;;;;14.40;69.80;99976.63;5132349;28;20042;-69
2021/07/25 00:33:32;;;;;;;53.92;21.60;;;;;;;14.45;69.79;99978.00;5131266;27;20050;-71
2021/07/25 00:36:02;;;;;;;47.00;21.48;;;;;;;14.49;69.76;99974.97;5132657;28;20491;-70
2021/07/25 00:38:28;;;;;;;49.05;23.10;;;;;;;14.53;69.97;99980.84;5132228;28;20039;-70
2021/07/25 00:41:02;;;;;;;56.92;22.75;;;;;;;14.56;69.89;99975.25;5115048;28;20123;-69
2021/07/25 00:43:29;;;;;;;55.83;23.17;;;;;;;14.55;70.14;99976.22;5097858;28;20039;-71
2021/07/25 00:45:55;;;;;;;55.58;23.48;;;;;;;14.53;70.20;99976.34;5131319;27;20043;-71
2021/07/25 00:48:24;;;;;;;49.42;24.17;;;;;;;14.51;70.67;99972.16;5131871;28;20426;-71
2021/07/25 00:50:49;;;;;;;54.75;24.80;;;;;;;14.44;70.91;99973.66;5131484;27;20516;-70
2021/07/25 00:53:17;;;;;;;49.13;23.90;;;;;;;14.41;71.21;99972.13;5131813;28;20058;-70
2021/07/25 00:55:42;;;;;;;49.10;23.53;;;;;;;14.45;71.10;99970.03;5112755;28;20123;-70
2021/07/25 00:58:08;;;;;;;57.20;23.50;;;;;;;14.51;71.00;99977.47;5133368;27;20088;-71
2021/07/25 01:00:34;;;;;;;57.05;24.63;;;;;;;14.59;70.86;99980.28;5135068;27;20591;-70
2021/07/25 01:03:06;;;;;;;56.00;23.25;;;;;;;14.62;70.03;99979.19;5135185;27;20127;-70
2021/07/25 01:05:41;;;;;;;55.83;22.30;;;;;;;14.55;69.35;99979.72;5135459;27;20078;-71
2021/07/25 01:08:19;;;;;;;54.00;21.67;;;;;;;14.63;69.17;99987.03;5130320;27;20490;-69
2021/07/25 01:10:45;;;;;;;53.83;20.70;;;;;;;14.66;68.94;99983.28;5117385;27;20043;-71
2021/07/25 01:13:18;;;;;;;57.10;21.95;;;;;;;14.63;68.64;99987.03;5117568;27;20047;-70
2021/07/25 01:15:45;;;;;;;50.00;21.13;;;;;;;14.49;69.21;99990.94;5134754;27;20043;-70
2021/07/25 01:18:11;;;;;;;50.05;22.33;;;;;;;14.37;69.51;99986.69;5134725;27;20111;-70
2021/07/25 01:20:36;;;;;;;48.97;22.83;;;;;;;14.34;69.79;99987.81;5135544;27;20105;-69
2021/07/25 01:23:03;;;;;;;49.58;21.42;;;;;;;14.46;69.59;99991.19;5135825;27;20039;-70
2021/07/25 01:25:29;;;;;;;54.97;23.70;;;;;;;14.60;69.03;99994.44;5134323;27;20058;-70
2021/07/25 01:28:07;;;;;;;51.97;24.70;;;;;;;14.70;68.67;99998.00;5117106;27;20041;-69
2021/07/25 01:30:36;;;;;;;55.25;26.67;;;;;;;14.77;68.28;99990.31;5134813;27;20080;-70
2021/07/25 01:33:03;;;;;;;52.63;23.30;;;;;;;14.77;68.81;99992.97;5116383;27;20047;-71
2021/07/25 01:35:31;;;;;;;51.72;22.70;;;;;;;14.64;70.08;99993.19;5135170;27;20675;-71
2021/07/25 01:37:57;;;;;;;42.97;23.08;;;;;;;14.49;70.79;99990.06;5114917;27;20039;-71
2021/07/25 01:40:24;;;;;;;48.13;24.13;;;;;;;14.38;71.29;99994.53;5133613;27;20050;-70
2021/07/25 01:42:53;;;;;;;54.23;25.47;;;;;;;14.35;71.85;99994.78;5134330;27;20046;-70
2021/07/25 01:45:19;;;;;;;48.70;24.42;;;;;;;14.31;72.03;99995.22;5135124;27;20295;-70
2021/07/25 01:47:45;;;;;;;43.83;24.90;;;;;;;14.31;72.37;99988.06;5133822;27;20430;-69
2021/07/25 01:50:12;;;;;;;48.22;23.77;;;;;;;14.30;72.30;99999.66;5134756;27;20043;-69
2021/07/25 01:52:38;;;;;;;50.40;24.45;;;;;;;14.33;72.25;99995.88;5134219;27;20035;-70
2021/07/25 01:55:05;;;;;;;64.93;36.60;;;;;;;14.37;72.12;99998.16;5134924;27;20059;-69
2021/07/25 01:57:30;;;;;;;89.22;51.67;;;;;;;14.35;72.12;100000.09;5134270;27;20126;-70
2021/07/25 01:59:56;;;;;;;69.30;40.85;;;;;;;14.35;72.58;100000.09;5133845;27;20122;-70
2021/07/25 02:02:22;;;;;;;90.18;52.00;;;;;;;14.40;72.22;100003.22;5129876;27;20640;-71
2021/07/25 02:04:48;;;;;;;61.28;33.58;;;;;;;14.43;72.08;99991.47;5133919;27;20047;-70
2021/07/25 02:07:14;;;;;;;78.45;44.85;;;;;;;14.43;72.35;99995.94;5133743;27;20043;-70
2021/07/25 02:09:40;;;;;;;118.65;78.80;;;;;;;14.47;72.04;100002.69;5133889;27;20123;-70
2021/07/25 02:12:07;;;;;;;130.10;79.53;;;;;;;14.54;71.77;100006.47;5133440;27;20129;-69
2021/07/25 02:14:35;;;;;;;170.70;109.57;;;;;;;14.61;71.53;100010.28;5132651;27;20046;-69
2021/07/25 02:17:01;;;;;;;228.95;149.32;;;;;;;14.71;71.20;100013.81;5133974;27;20332;-69
2021/07/25 02:19:27;;;;;;;219.93;146.27;;;;;;;14.82;70.58;100018.19;5133902;27;20035;-70
2021/07/25 02:21:53;;;;;;;109.20;63.03;;;;;;;14.90;70.29;100014.84;5134216;27;20075;-70
2021/07/25 02:24:22;;;;;;;95.40;55.85;;;;;;;14.95;70.10;100023.25;5133914;27;20487;-70
2021/07/25 02:26:49;;;;;;;79.88;43.55;;;;;;;14.92;70.09;100012.88;5133499;27;20054;-69
2021/07/25 02:29:15;;;;;;;88.47;48.63;;;;;;;14.91;69.89;100015.69;5134149;27;20039;-70
2021/07/25 02:31:41;;;;;;;58.53;31.35;;;;;;;14.96;70.07;100024.94;5134174;27;20288;-70
2021/07/25 02:34:07;;;;;;;66.00;34.80;;;;;;;14.96;69.98;100026.78;5134951;27;20042;-69
2021/07/25 02:36:33;;;;;;;53.42;27.50;;;;;;;14.94;70.17;100021.59;5113181;28;20063;-70
2021/07/25 02:38:58;;;;;;;48.58;26.05;;;;;;;14.91;70.14;100026.34;5121032;27;20039;-70
2021/07/25 02:41:24;;;;;;;56.80;31.58;;;;;;;14.99;70.02;100030.00;5131654;27;20415;-70
2021/07/25 02:43:50;;;;;;;67.60;36.20;;;;;;;15.06;69.70;100029.47;5130422;27;20074;-69
2021/07/25 02:46:16;;;;;;;66.60;32.13;;;;;;;15.17;69.57;100029.31;5133031;27;20034;-70
2021/07/25 02:48:41;;;;;;;67.50;37.05;;;;;;;15.27;69.29;100024.81;5132927;27;20087;-70
2021/07/25 02:51:07;;;;;;;56.85;27.60;;;;;;;15.26;68.90;100036.47;5132124;27;20107;-71
2021/07/25 02:53:33;;;;;;;54.78;26.40;;;;;;;15.24;69.03;100026.94;5133197;27;20081;-69
2021/07/25 02:55:59;;;;;;;56.33;25.67;;;;;;;15.21;69.35;100033.38;5133442;27;20059;-69
2021/07/25 02:58:25;;;;;;;56.40;26.83;;;;;;;15.20;69.32;100029.88;5133356;27;20519;-71
2021/07/25 03:00:51;;;;;;;55.10;25.48;;;;;;;15.25;69.07;100034.78;5114378;27;20065;-70
2021/07/25 03:03:16;;;;;;;49.97;25.23;;;;;;;15.33;68.93;100040.25;5133655;27;20070;-70
2021/07/25 03:05:42;;;;;;;55.75;24.73;;;;;;;15.46;68.50;100042.63;5132815;27;20051;-69
2021/07/25 03:08:08;;;;;;;56.15;24.73;;;;;;;15.59;68.17;100039.69;5131510;27;20107;-69
2021/07/25 03:10:34;;;;;;;46.28;23.90;;;;;;;15.72;67.96;100038.56;5133220;27;20054;-70
2021/07/25 03:13:00;;;;;;;50.33;24.45;;;;;;;15.81;67.40;100045.69;5133241;27;20126;-69
2021/07/25 03:15:25;;;;;;;54.38;24.27;;;;;;;15.89;66.96;100045.84;5133408;27;20045;-70
2021/07/25 03:17:52;;;;;;;46.17;23.25;;;;;;;15.97;66.64;100045.97;5132160;27;20050;-71
2021/07/25 03:20:18;;;;;;;54.63;26.85;;;;;;;16.05;65.26;100052.41;5113665;27;20031;-70
2021/07/25 03:22:44;;;;;;;51.80;25.95;;;;;;;16.14;64.44;100056.91;5132936;27;20051;-69
2021/07/25 03:25:11;;;;;;;47.33;24.70;;;;;;;16.20;65.27;100056.31;5132757;27;20046;-70
2021/07/25 03:27:37;;;;;;;53.90;23.40;;;;;;;16.28;65.44;100045.72;5131073;27;20145;-71
2021/07/25 03:30:03;;;;;;;47.78;25.00;;;;;;;16.29;65.53;100049.25;5133180;27;20134;-70
2021/07/25 03:32:29;;;;;;;46.30;24.38;;;;;;;16.27;65.89;100057.38;5132593;27;20051;-71
2021/07/25 03:34:55;;;;;;;49.75;24.50;;;;;;;16.33;65.68;100056.81;5132122;27;20031;-71
2021/07/25 03:37:21;;;;;;;53.80;25.10;;;;;;;16.39;65.42;100059.91;5132371;27;20122;-71
2021/07/25 03:39:49;;;;;;;51.63;23.77;;;;;;;16.51;65.44;100064.06;5131184;27;20050;-70
2021/07/25 03:42:15;;;;;;;49.08;23.25;;;;;;;16.64;64.58;100061.88;5130592;27;20392;-70
2021/07/25 03:44:41;;;;;;;44.97;22.75;;;;;;;16.82;64.44;100066.41;5131561;27;20071;-70
2021/07/25 03:47:08;;;;;;;48.15;22.13;;;;;;;17.04;64.20;100061.69;5132626;27;20054;-69
2021/07/25 03:49:34;;;;;;;50.45;24.98;;;;;;;17.03;62.27;100068.84;5132032;27;20050;-72
2021/07/25 03:52:00;;;;;;;41.55;23.17;;;;;;;16.93;62.50;100063.56;5131300;27;20036;-70
2021/07/25 03:54:25;;;;;;;44.75;22.77;;;;;;;17.00;62.58;100071.84;5131752;27;20461;-72
2021/07/25 03:56:52;;;;;;;47.10;24.40;;;;;;;17.15;60.98;100072.16;5130724;27;20234;-71
2021/07/25 03:59:17;;;;;;;51.75;24.27;;;;;;;17.21;61.20;100076.91;5131860;27;20546;-70
2021/07/25 04:01:43;;;;;;;42.60;23.25;;;;;;;17.23;60.73;100074.91;5132056;27;20035;-71
2021/07/25 04:04:09;;;;;;;50.33;24.98;;;;;;;17.35;59.75;100077.38;5132171;27;20108;-71
2021/07/25 04:06:34;;;;;;;38.78;21.60;;;;;;;17.36;58.09;100085.25;5132558;28;20478;-71
2021/07/25 04:09:01;;;;;;;39.25;21.45;;;;;;;17.58;59.17;100077.72;5132065;27;20035;-71
2021/07/25 04:11:26;;;;;;;40.60;20.75;;;;;;;17.74;57.99;100082.38;5132010;28;20438;-71
2021/07/25 04:13:52;;;;;;;40.60;22.48;;;;;;;17.74;57.03;100088.56;5132234;27;20035;-71
2021/07/25 04:16:18;;;;;;;40.75;21.83;;;;;;;17.88;56.34;100083.66;5131845;27;20043;-71
2021/07/25 04:18:44;;;;;;;39.08;21.65;;;;;;;17.99;56.24;100087.97;5132079;27;20515;-73
2021/07/25 04:21:10;;;;;;;35.70;21.02;;;;;;;18.30;54.74;100093.69;5131994;27;20046;-72
2021/07/25 04:23:39;;;;;;;48.83;23.55;;;;;;;18.58;55.93;100097.00;5131559;28;20039;-71
2021/07/25 04:26:05;;;;;;;43.92;21.80;;;;;;;18.68;56.16;100083.50;5131294;27;20043;-71
2021/07/25 04:28:31;;;;;;;42.78;23.27;;;;;;;18.79;56.03;100090.41;5127217;27;20050;-72
2021/07/25 04:30:57;;;;;;;40.38;23.13;;;;;;;18.79;54.78;100093.09;5093156;28;20051;-72
2021/07/25 04:33:30;;;;;;;50.30;26.05;;;;;;;18.92;54.96;100088.13;5135740;27;20122;-70
2021/07/25 04:35:56;;;;;;;46.70;26.70;;;;;;;19.02;54.72;100089.84;5134599;27;20031;-72
2021/07/25 04:38:23;;;;;;;47.65;26.10;;;;;;;19.15;53.84;100087.53;5134805;27;20280;-70
2021/07/25 04:40:57;;;;;;;46.50;26.23;;;;;;;19.24;53.51;100096.44;5136311;27;20047;-71
2021/07/25 04:43:30;;;;;;;46.88;25.55;;;;;;;19.34;53.20;100096.28;5134672;27;20031;-71
2021/07/25 04:46:10;;;;;;;46.25;26.17;;;;;;;19.29;53.70;100094.09;5135333;27;20103;-71
2021/07/25 04:48:54;;;;;;;44.25;27.52;;;;;;;19.28;53.60;100096.94;5132454;27;20039;-72
2021/07/25 04:51:21;;;;;;;57.97;28.98;;;;;;;19.45;53.00;100101.34;5133536;27;20183;-70
2021/07/25 04:53:48;;;;;;;54.55;30.10;;;;;;;19.45;53.02;100104.03;5117028;27;20667;-70
2021/07/25 04:56:14;;;;;;;56.30;28.48;;;;;;;19.50;52.66;100107.03;5135536;27;20043;-72
2021/07/25 04:58:52;;;;;;;49.17;27.75;;;;;;;19.50;52.59;100107.03;5135917;27;20526;-71
2021/07/25 05:01:24;;;;;;;48.25;26.52;;;;;;;19.58;52.48;100097.31;5135251;27;20126;-72
2021/07/25 05:03:51;;;;;;;48.63;26.42;;;;;;;19.83;52.20;100108.94;5117000;27;20172;-72
2021/07/25 05:06:17;;;;;;;45.92;22.92;;;;;;;20.34;51.00;100114.06;5117514;27;20035;-72
2021/07/25 05:08:43;;;;;;;29.50;16.05;;;;;;;21.02;47.05;100106.44;5135315;27;20067;-72
2021/07/25 05:11:24;;;;;;;41.50;20.45;;;;;;;21.26;45.91;100107.31;5134627;27;20042;-73
2021/07/25 05:13:53;;;;;;;36.55;20.40;;;;;;;21.29;45.52;100102.44;5117595;27;20480;-72
2021/07/25 05:16:40;;;;;;;32.35;17.17;;;;;;;21.93;44.76;100095.94;5117003;27;20039;-71
2021/07/25 05:19:33;;;;;;;28.08;16.40;;;;;;;23.26;41.95;100097.94;5118129;27;20101;-71
2021/07/25 05:22:33;;;;;;;34.78;19.77;;;;;;;23.72;40.23;100099.44;5136046;27;20212;-73
2021/07/25 05:25:00;;;;;;;34.67;19.77;;;;;;;25.25;38.11;100090.56;5136779;27;20047;-74
2021/07/25 05:27:29;;;;;;;36.25;21.20;;;;;;;26.64;35.29;100093.47;5136742;27;20061;-74
2021/07/25 05:29:55;;;;;;;35.20;18.50;;;;;;;26.87;35.04;100092.16;5117927;27;20405;-71
2021/07/25 05:32:21;;;;;;;33.90;19.50;;;;;;;27.48;33.47;100098.13;5143113;27;20106;-73
2021/07/25 05:34:48;;;;;;;28.73;18.13;;;;;;;27.65;32.86;100097.56;5118371;27;20036;-72
2021/07/25 05:37:14;;;;;;;29.88;18.00;;;;;;;27.70;32.95;100092.31;5117484;27;20054;-73
2021/07/25 05:39:40;;;;;;;30.08;17.70;;;;;;;27.17;33.06;100101.63;5135165;27;20043;-72
2021/07/25 05:42:05;;;;;;;29.98;15.95;;;;;;;26.15;34.67;100102.97;5135080;27;20035;-72
2021/07/25 05:44:31;;;;;;;24.10;14.57;;;;;;;26.07;35.30;100097.75;5116026;27;20492;-73
2021/07/25 05:47:00;;;;;;;25.58;15.07;;;;;;;26.16;35.30;100108.19;5147525;27;20035;-79
2021/07/25 05:49:36;;;;;;;24.40;14.50;;;;;;;27.00;34.04;100109.44;5135749;27;20062;-72
2021/07/25 05:52:02;;;;;;;24.33;13.48;;;;;;;28.38;31.99;100107.00;5101761;27;20039;-75
2021/07/25 05:54:29;;;;;;;28.17;14.43;;;;;;;27.92;32.61;100106.34;5134879;27;20078;-72
2021/07/25 05:56:55;;;;;;;24.20;13.38;;;;;;;28.39;32.00;100108.66;5134343;27;20162;-72
2021/07/25 05:59:21;;;;;;;27.13;15.32;;;;;;;28.33;31.44;100109.56;5127523;27;20441;-74
2021/07/25 06:01:48;;;;;;;25.52;15.93;;;;;;;28.83;31.11;100109.44;5133832;27;20551;-74
2021/07/25 06:04:13;;;;;;;30.65;16.55;;;;;;;28.37;31.76;100114.31;5134834;27;20127;-75
2021/07/25 06:06:39;;;;;;;27.77;18.23;;;;;;;27.96;32.58;100114.91;5134561;27;20046;-74
2021/07/25 06:09:07;;;;;;;32.53;19.92;;;;;;;27.80;33.69;100111.66;5135214;27;20050;-74
2021/07/25 06:11:34;;;;;;;31.00;18.08;;;;;;;28.45;32.10;100110.47;5134944;27;20050;-74
2021/07/25 06:14:00;;;;;;;28.90;16.20;;;;;;;28.06;32.39;100117.97;5134298;27;20047;-74
2021/07/25 06:16:26;;;;;;;24.90;15.30;;;;;;;28.77;31.39;100121.22;5116307;27;20035;-74
2021/07/25 06:18:52;;;;;;;28.92;14.95;;;;;;;29.67;29.95;100116.88;5134216;27;20168;-75
2021/07/25 06:21:18;;;;;;;27.45;16.13;;;;;;;29.52;29.91;100106.44;5127919;27;20036;-74
2021/07/25 06:23:49;;;;;;;23.95;15.35;;;;;;;29.42;30.13;100116.22;5126394;27;20061;-73
2021/07/25 06:26:15;;;;;;;21.52;11.40;;;;;;;28.57;30.41;100116.00;5133304;27;20050;-77
2021/07/25 06:28:41;;;;;;;21.17;9.15;;;;;;;28.32;29.98;100124.22;5129927;27;20529;-78
2021/07/25 06:31:11;;;;;;;17.15;9.30;;;;;;;29.15;29.19;100117.41;5134111;27;20039;-75
2021/07/25 06:33:37;;;;;;;18.17;9.48;;;;;;;29.42;29.07;100116.22;5134450;27;20590;-74
2021/07/25 06:36:04;;;;;;;15.95;9.80;;;;;;;29.89;28.46;100115.50;5133391;27;20133;-76
2021/07/25 06:38:30;;;;;;;16.73;8.85;;;;;;;30.27;27.24;100112.34;5133310;27;20126;-73
2021/07/25 06:40:56;;;;;;;9.82;5.28;;;;;;;29.92;25.76;100112.31;5133922;27;20591;-79
2021/07/25 06:43:23;;;;;;;7.80;3.75;;;;;;;28.47;26.57;100126.56;5134733;27;20122;-74
2021/07/25 06:45:53;;;;;;;5.47;3.65;;;;;;;28.60;26.55;100114.72;5133975;27;20043;-78
2021/07/25 06:48:26;;;;;;;7.85;3.47;;;;;;;29.13;25.98;100124.97;5134870;27;20042;-76
2021/07/25 06:50:54;;;;;;;5.85;3.25;;;;;;;29.83;25.01;100123.56;5106967;27;20035;-79
2021/07/25 06:53:21;;;;;;;5.55;2.80;;;;;;;29.65;23.83;100129.09;5105363;27;20043;-76
2021/07/25 06:55:48;;;;;;;5.32;3.10;;;;;;;29.16;24.96;100127.25;5126384;27;20038;-76
2021/07/25 06:58:14;;;;;;;7.63;3.58;;;;;;;28.32;25.86;100135.09;5122036;27;20082;-76
2021/07/25 07:00:41;;;;;;;7.57;3.53;;;;;;;29.75;24.71;100126.63;5121817;27;20539;-74
2021/07/25 07:03:07;;;;;;;6.03;3.40;;;;;;;32.13;21.46;100125.97;5101750;27;20043;-77
2021/07/25 07:05:34;;;;;;;4.05;3.08;;;;;;;33.60;19.49;100131.91;5121661;27;20610;-77
2021/07/25 07:08:04;;;;;;;6.55;2.55;;;;;;;34.12;18.78;100127.69;5094805;27;20111;-78
2021/07/25 07:10:35;;;;;;;3.58;2.28;;;;;;;34.49;17.83;100126.84;5106144;27;20047;-79
2021/07/25 07:13:03;;;;;;;3.92;2.05;;;;;;;35.46;17.43;100123.59;5088037;27;20032;-76
2021/07/25 07:15:29;;;;;;;6.03;2.60;;;;;;;35.20;17.14;100125.47;5123186;27;20452;-77
2021/07/25 07:17:57;;;;;;;4.53;2.75;;;;;;;36.20;16.42;100119.72;5119976;27;20043;-79
2021/07/25 07:20:23;;;;;;;5.22;2.88;;;;;;;37.70;15.31;100123.41;5123869;27;20046;-81
2021/07/25 07:23:01;;;;;;;4.93;3.35;;;;;;;39.01;14.43;100118.97;5104832;28;20074;-82
2021/07/25 07:25:30;;;;;;;3.97;3.00;;;;;;;38.38;14.30;100120.84;5123528;27;20035;-76
2021/07/25 07:27:56;;;;;;;4.65;2.80;;;;;;;39.15;14.35;100117.09;5103853;27;20031;-77
2021/07/25 07:30:22;;;;;;;6.03;2.38;;;;;;;38.86;14.04;100119.19;5103479;28;20384;-78
2021/07/25 07:32:48;;;;;;;5.43;2.65;;;;;;;39.65;12.81;100113.03;5122560;27;20095;-80
2021/07/25 07:35:14;;;;;;;4.15;2.50;;;;;;;38.82;13.46;100118.94;5086262;27;20404;-80
2021/07/25 07:37:39;;;;;;;2.85;2.00;;;;;;;39.67;12.54;100118.28;5103670;27;20043;-78
2021/07/25 07:40:06;;;;;;;3.72;2.60;;;;;;;39.01;12.23;100113.44;5120914;27;20487;-79
2021/07/25 07:42:31;;;;;;;;;;;;;;;39.23;12.78;100120.34;5108000;27;20368;-79
2021/07/25 07:44:58;;;;;;;5.70;3.00;;;;;;;39.74;12.39;100121.47;5123272;27;19922;-76
2021/07/25 07:47:25;;;;;;;3.83;2.25;;;;;;;41.18;11.05;100123.38;5120715;27;20047;-76
2021/07/25 07:49:51;;;;;;;5.68;3.60;;;;;;;42.06;10.77;100123.97;5120821;27;20039;-76
2021/07/25 07:52:17;;;;;;;3.53;2.30;;;;;;;42.15;10.12;100114.53;5121921;27;20038;-76
2021/07/25 07:54:43;;;;;;;8.30;4.00;;;;;;;40.44;11.05;100114.13;5088383;28;20055;-78
2021/07/25 07:57:09;;;;;;;7.68;5.47;;;;;;;38.94;12.83;100119.34;5080307;28;20036;-77
2021/07/25 07:59:35;;;;;;;3.78;2.90;;;;;;;39.29;12.69;100116.38;5082975;28;20127;-76
2021/07/25 08:02:01;;;;;;;4.93;2.33;;;;;;;37.87;13.30;100117.50;5062179;28;20042;-76
2021/07/25 08:04:26;;;;;;;;;;;;;;;37.34;13.42;100128.41;5072765;28;20041;-78
2021/07/25 08:06:52;;;;;;;8.15;3.83;;;;;;;38.64;13.07;100109.50;5053975;28;20391;-81
2021/07/25 08:09:18;;;;;;;4.57;3.05;;;;;;;37.41;13.93;100115.09;5073860;28;20086;-79
2021/07/25 08:11:45;;;;;;;6.70;3.45;;;;;;;39.27;13.21;100108.38;5091224;28;20135;-75
2021/07/25 08:14:15;;;;;;;3.55;2.45;;;;;;;38.81;12.44;100107.06;5090877;28;20032;-78
2021/07/25 08:16:41;;;;;;;7.05;2.90;;;;;;;38.36;12.65;100106.53;5087170;28;20043;-82
2021/07/25 08:19:08;;;;;;;6.38;3.30;;;;;;;38.21;13.18;100110.25;5092775;28;20431;-78
2021/07/25 08:21:35;;;;;;;8.02;3.70;;;;;;;39.25;12.72;100107.03;5092336;28;20048;-78
2021/07/25 08:24:00;;;;;;;;;;;;;;;39.26;12.71;100103.16;5092607;28;20047;-79
2021/07/25 08:26:26;;;;;;;4.85;2.20;;;;;;;37.16;13.49;100113.31;5092077;28;19916;-80
2021/07/25 08:28:52;;;;;;;6.97;2.58;;;;;;;35.52;14.71;100107.09;5093602;28;20404;-78
2021/07/25 08:31:22;;;;;;;5.93;2.63;;;;;;;33.94;16.02;100104.25;5092317;28;20192;-79
2021/07/25 08:33:51;;;;;;;6.13;2.40;;;;;;;32.82;17.45;100111.09;5094307;28;20051;-82
2021/07/25 08:36:17;;;;;;;8.73;2.80;;;;;;;31.35;18.79;100102.78;5091757;28;20040;-79
2021/07/25 08:38:43;;;;;;;6.85;2.83;;;;;;;31.26;19.06;100107.00;5091904;28;20044;-77
2021/07/25 08:41:11;;;;;;;5.40;2.50;;;;;;;31.04;19.19;100099.50;5091802;28;20513;-77
2021/07/25 08:43:42;;;;;;;6.88;2.65;;;;;;;30.89;20.08;100101.91;5090715;28;20451;-79
2021/07/25 08:46:20;;;;;;;7.43;3.17;;;;;;;30.76;19.94;100113.94;5092172;28;20043;-77
2021/07/25 08:48:51;;;;;;;8.65;3.33;;;;;;;30.55;20.46;100112.69;5093009;28;20040;-77
2021/07/25 08:51:22;;;;;;;5.38;2.42;;;;;;;30.50;20.35;100108.75;5090811;28;20078;-79
2021/07/25 08:53:59;;;;;;;5.32;2.80;;;;;;;30.34;20.63;100114.91;5094776;28;20051;-77
2021/07/25 08:56:30;;;;;;;5.68;2.75;;;;;;;29.77;21.48;100119.03;5111451;28;20416;-77
2021/07/25 08:58:59;;;;;;;7.45;3.58;;;;;;;29.28;22.17;100116.38;5112077;28;20411;-77
2021/07/25 09:01:33;;;;;;;6.28;3.40;;;;;;;29.19;22.72;100118.59;5112329;28;20075;-77
2021/07/25 09:04:01;;;;;;;8.63;2.63;;;;;;;28.97;22.58;100125.59;5112218;28;20503;-77
2021/07/25 09:06:40;;;;;;;7.90;3.42;;;;;;;28.58;23.01;100129.38;5111915;28;20071;-78
2021/07/25 09:09:07;;;;;;;8.63;3.10;;;;;;;28.12;23.65;100127.97;5111820;28;20463;-79
2021/07/25 09:11:33;;;;;;;8.32;3.95;;;;;;;27.54;24.97;100129.00;5112309;28;20067;-77
2021/07/25 09:13:59;;;;;;;11.38;8.35;;;;;;;27.26;25.19;100133.72;5112154;28;20062;-77
2021/07/25 09:16:30;;;;;;;8.02;3.38;;;;;;;27.29;25.73;100138.75;5112117;28;20058;-80
2021/07/25 09:18:56;;;;;;;9.77;3.97;;;;;;;27.46;25.88;100132.81;5113095;28;20048;-79
2021/07/25 09:21:40;;;;;;;8.32;3.58;;;;;;;27.03;26.01;100138.88;5115560;27;20043;-79
2021/07/25 09:24:14;;;;;;;8.18;3.40;;;;;;;26.92;25.63;100133.06;5115785;28;20039;-77
2021/07/25 09:27:09;;;;;;;9.63;4.05;;;;;;;26.73;26.25;100134.78;5114532;28;20051;-77
2021/07/25 09:29:36;;;;;;;5.15;2.95;;;;;;;26.61;26.48;100134.59;5032248;28;20403;-75
2021/07/25 09:32:16;;;;;;;7.35;3.22;;;;;;;26.43;26.52;100129.84;5032782;28;20429;-77
2021/07/25 09:34:43;;;;;;;8.15;2.95;;;;;;;26.72;26.78;100138.53;5015764;28;20111;-77
2021/07/25 09:37:17;;;;;;;5.82;3.03;;;;;;;26.74;26.70;100130.22;5032411;28;20037;-77
2021/07/25 09:39:45;;;;;;;6.40;3.17;;;;;;;26.99;26.27;100134.91;5032380;28;20577;-78
2021/07/25 09:42:11;;;;;;;8.80;2.80;;;;;;;27.06;26.18;100133.84;5031985;28;20057;-78
2021/07/25 09:44:48;;;;;;;12.73;3.63;;;;;;;26.70;26.85;100145.22;5032188;28;20041;-78
2021/07/25 09:47:29;;;;;;;;;;;;;;;26.43;27.19;100137.13;5016331;28;20060;-81
2021/07/25 09:49:56;;;;;;;7.80;3.35;;;;;;;26.54;27.21;100136.47;5031896;28;19928;-81
2021/07/25 09:52:28;;;;;;;5.60;2.13;;;;;;;26.45;26.21;100132.34;5031957;28;20061;-77
2021/07/25 09:54:56;;;;;;;6.90;2.50;;;;;;;26.58;26.40;100129.59;5031563;28;20140;-82
2021/07/25 09:57:25;;;;;;;9.13;3.90;;;;;;;26.72;26.51;100143.97;5016324;28;20038;-77
2021/07/25 09:59:56;;;;;;;7.68;2.72;;;;;;;26.38;26.65;100143.22;5031644;28;20553;-78
2021/07/25 10:02:51;;;;;;;5.85;2.63;;;;;;;25.95;27.55;100146.34;5029964;28;20132;-81
2021/07/25 10:05:19;;;;;;;6.57;2.72;;;;;;;25.91;27.79;100140.50;5000123;28;20132;-77
2021/07/25 10:07:46;;;;;;;5.75;2.60;;;;;;;26.00;27.51;100146.53;5014270;28;20045;-77
2021/07/25 10:10:14;;;;;;;13.20;6.68;;;;;;;25.92;28.36;100147.59;5015586;28;20068;-79
2021/07/25 10:12:42;;;;;;;7.20;2.60;;;;;;;26.03;27.71;100145.28;5031959;28;20049;-80
2021/07/25 10:15:08;;;;;;;;;;;;;;;25.86;27.96;100140.28;5032210;28;20060;-78
2021/07/25 10:17:39;;;;;;;7.70;3.28;;;;;;;26.14;27.86;100142.81;5031464;28;19983;-78
2021/07/25 10:20:07;;;;;;;10.23;5.43;;;;;;;26.16;27.62;100153.47;5031587;28;20045;-79
2021/07/25 10:22:34;;;;;;;14.68;6.55;;;;;;;26.22;27.94;100149.91;5015094;28;20049;-77
2021/07/25 10:25:03;;;;;;;11.45;5.65;;;;;;;26.31;27.68;100153.22;5015032;28;20049;-80
2021/07/25 10:27:31;;;;;;;7.15;3.08;;;;;;;26.52;27.29;100154.03;5031269;28;20045;-80
2021/07/25 10:30:03;;;;;;;7.00;3.03;;;;;;;26.39;27.58;100149.47;5031435;28;20050;-77
2021/07/25 10:32:31;;;;;;;11.60;3.30;;;;;;;26.47;27.84;100157.38;5031505;28;20037;-78
2021/07/25 10:34:57;;;;;;;8.10;3.33;;;;;;;26.39;27.60;100153.00;5031134;28;20147;-78
2021/07/25 10:37:24;;;;;;;7.97;3.00;;;;;;;26.79;27.24;100154.81;5014705;28;20628;-77
2021/07/25 10:39:51;;;;;;;6.22;2.42;;;;;;;26.89;26.38;100163.38;5031098;28;20042;-77
2021/07/25 10:42:20;;;;;;;4.10;2.30;;;;;;;27.45;25.72;100155.59;5078779;28;20059;-77
2021/07/25 10:44:46;;;;;;;8.18;3.10;;;;;;;27.79;25.32;100155.38;5075042;28;20040;-78
2021/07/25 10:47:28;;;;;;;6.85;2.97;;;;;;;28.27;24.74;100165.69;5092634;28;20058;-77
2021/07/25 10:49:58;;;;;;;9.32;3.65;;;;;;;28.62;24.55;100162.41;5093393;28;20066;-77
2021/07/25 10:52:23;;;;;;;10.88;4.72;;;;;;;28.93;24.25;100157.91;5092397;28;20081;-77
2021/07/25 10:54:49;;;;;;;10.55;5.45;;;;;;;28.74;23.92;100157.09;5091807;28;20052;-78
2021/07/25 10:57:15;;;;;;;6.55;2.70;;;;;;;28.44;24.22;100154.22;5074811;28;20101;-78
2021/07/25 10:59:50;;;;;;;9.82;3.50;;;;;;;28.39;24.28;100157.63;5093530;28;20126;-77
2021/07/25 11:02:22;;;;;;;7.13;3.22;;;;;;;28.41;24.19;100160.94;5093438;28;20044;-79
2021/07/25 11:04:53;;;;;;;8.27;3.20;;;;;;;28.19;24.54;100152.41;5093118;28;20044;-78
2021/07/25 11:07:22;;;;;;;7.05;2.95;;;;;;;27.84;24.71;100156.41;5093423;28;20039;-76
2021/07/25 11:10:01;;;;;;;4.60;2.58;;;;;;;27.78;24.66;100154.56;5091400;28;20048;-77
2021/07/25 11:12:54;;;;;;;7.28;3.20;;;;;;;27.78;25.39;100154.56;5093073;28;20046;-78
2021/07/25 11:15:32;;;;;;;14.63;5.40;;;;;;;27.33;25.86;100154.59;5093100;28;20046;-78
2021/07/25 11:18:08;;;;;;;4.60;2.78;;;;;;;27.02;26.25;100156.22;5093092;28;20047;-77
2021/07/25 11:20:59;;;;;;;8.63;4.45;;;;;;;26.52;26.51;100157.59;5092347;28;20046;-78
2021/07/25 11:23:24;;;;;;;7.32;3.45;;;;;;;26.68;26.65;100152.75;5092969;28;20185;-78